Seoul Air Base
RKSM : now visible

Airfield :











YOU CAN JOIN US ON...

 
LOGIN :

Register | Disclaimer

   EN    FR    IT 

 









Legend :    VFR   Marginal VFR   IFR   Intensive IFR   Very Intensive IFR
Visi :
Ceiling :
>= 8 km
>= 3000ft
5 to 8 km
1000 to 3000 ft
1500m to 5 km
500 to 1000 ft
800 to 1500m
200 to 500 ft
< 800m
< 200 ft
Symbols :   Thunderstorms  Fog  Heavy snow  Heavy precipitations  Wind > 20 kt







- Airport Elevation : 92 ft
- IATA code : SSN


RKSM - Seoul Air Base

CURRENT METAR :
  • 260000Z 20006KT 9999 BKN017 25/20 A2995

EXPIRED METARs :
  • 252300Z 21003KT 9999 BKN015 24/20 A2995
  • 252200Z 22002KT 9999 BKN015 22/20 A2995

TAF TAF RKSM
Valid from the 26 at 00:00 until the 27 at 06:00 UTC


252300Z 2600/2706 21006KT 9999 SCT030 SCT200 TX31/2606Z TN23/2621Z
No reported NOTAMs for that airfield.



MET'MAP, your aeronautical weather chart ! - Copyright ORBIFLY December 2007 - Disclaimer

ORBIFLY MET'MAP TEAM :

Programming & Development : Alexandra Zaïnal
Concept & Development : Baudouin d'Aumeries
Co-Development & Prog : Marc-Olivier Méhu
Technical & hardware support : Manuel Goepfert

Contact : metmap@orbifly.com




SOURCES & CREDITS :

   NOAA       Earth
Advisory